sensor_id;sensor_type;location;lat;lon;timestamp;temperature;humidity
64715;DHT22;51144;53.002;6.506;2023-04-12T00:02:23;8.40;99.90
64715;DHT22;51144;53.002;6.506;2023-04-12T00:04:49;8.30;99.90
64715;DHT22;51144;53.002;6.506;2023-04-12T00:07:23;8.40;99.90
64715;DHT22;51144;53.002;6.506;2023-04-12T00:09:49;8.40;99.90
64715;DHT22;51144;53.002;6.506;2023-04-12T00:12:16;8.40;99.90
64715;DHT22;51144;53.002;6.506;2023-04-12T00:14:42;8.40;99.90
64715;DHT22;51144;53.002;6.506;2023-04-12T00:17:08;8.40;99.90
64715;DHT22;51144;53.002;6.506;2023-04-12T00:19:33;8.40;99.90
64715;DHT22;51144;53.002;6.506;2023-04-12T00:21:59;8.40;99.90
64715;DHT22;51144;53.002;6.506;2023-04-12T00:24:25;8.40;99.90
64715;DHT22;51144;53.002;6.506;2023-04-12T00:26:51;8.40;99.90
64715;DHT22;51144;53.002;6.506;2023-04-12T00:29:16;8.50;99.90
64715;DHT22;51144;53.002;6.506;2023-04-12T00:31:42;8.50;99.90
64715;DHT22;51144;53.002;6.506;2023-04-12T00:34:08;8.40;99.90
64715;DHT22;51144;53.002;6.506;2023-04-12T00:36:33;8.50;99.90
64715;DHT22;51144;53.002;6.506;2023-04-12T00:38:59;8.50;99.90
64715;DHT22;51144;53.002;6.506;2023-04-12T00:41:25;8.50;99.90
64715;DHT22;51144;53.002;6.506;2023-04-12T00:43:51;8.50;99.90
64715;DHT22;51144;53.002;6.506;2023-04-12T00:46:17;8.50;99.90
64715;DHT22;51144;53.002;6.506;2023-04-12T00:48:43;8.50;99.90
64715;DHT22;51144;53.002;6.506;2023-04-12T00:51:12;8.50;99.90
64715;DHT22;51144;53.002;6.506;2023-04-12T00:53:38;8.50;99.90
64715;DHT22;51144;53.002;6.506;2023-04-12T00:56:05;8.50;99.90
64715;DHT22;51144;53.002;6.506;2023-04-12T00:58:32;8.50;99.90
64715;DHT22;51144;53.002;6.506;2023-04-12T01:00:57;8.60;99.90
64715;DHT22;51144;53.002;6.506;2023-04-12T01:03:23;8.50;99.90
64715;DHT22;51144;53.002;6.506;2023-04-12T01:13:54;8.60;99.90
64715;DHT22;51144;53.002;6.506;2023-04-12T01:16:45;8.60;99.90
64715;DHT22;51144;53.002;6.506;2023-04-12T01:19:32;8.60;99.90
64715;DHT22;51144;53.002;6.506;2023-04-12T01:22:16;8.60;99.90
64715;DHT22;51144;53.002;6.506;2023-04-12T01:27:38;8.70;99.90
64715;DHT22;51144;53.002;6.506;2023-04-12T01:30:05;8.70;99.90
64715;DHT22;51144;53.002;6.506;2023-04-12T01:32:34;8.70;99.90
64715;DHT22;51144;53.002;6.506;2023-04-12T01:35:02;8.70;99.90
64715;DHT22;51144;53.002;6.506;2023-04-12T01:37:28;8.70;99.90
64715;DHT22;51144;53.002;6.506;2023-04-12T01:39:55;8.70;99.90
64715;DHT22;51144;53.002;6.506;2023-04-12T01:42:20;8.70;99.90
64715;DHT22;51144;53.002;6.506;2023-04-12T01:44:46;8.70;99.90
64715;DHT22;51144;53.002;6.506;2023-04-12T01:47:12;8.70;99.90
64715;DHT22;51144;53.002;6.506;2023-04-12T01:49:48;8.70;99.90
64715;DHT22;51144;53.002;6.506;2023-04-12T01:52:18;8.70;99.90
64715;DHT22;51144;53.002;6.506;2023-04-12T01:54:48;8.70;99.90
64715;DHT22;51144;53.002;6.506;2023-04-12T01:57:16;8.70;99.90
64715;DHT22;51144;53.002;6.506;2023-04-12T01:59:44;8.70;99.90
64715;DHT22;51144;53.002;6.506;2023-04-12T02:02:11;8.70;99.90
64715;DHT22;51144;53.002;6.506;2023-04-12T02:04:38;8.70;99.90
64715;DHT22;51144;53.002;6.506;2023-04-12T02:07:04;8.70;99.90
64715;DHT22;51144;53.002;6.506;2023-04-12T02:09:35;8.70;99.90
64715;DHT22;51144;53.002;6.506;2023-04-12T02:12:02;8.80;99.90
64715;DHT22;51144;53.002;6.506;2023-04-12T02:14:28;8.70;99.90
64715;DHT22;51144;53.002;6.506;2023-04-12T02:16:56;8.70;99.90
64715;DHT22;51144;53.002;6.506;2023-04-12T02:19:22;8.70;99.90
64715;DHT22;51144;53.002;6.506;2023-04-12T02:21:49;8.70;99.90
64715;DHT22;51144;53.002;6.506;2023-04-12T02:24:16;8.70;99.90
64715;DHT22;51144;53.002;6.506;2023-04-12T02:26:41;8.70;99.90
64715;DHT22;51144;53.002;6.506;2023-04-12T02:29:08;8.70;99.90
64715;DHT22;51144;53.002;6.506;2023-04-12T02:31:37;8.60;99.90
64715;DHT22;51144;53.002;6.506;2023-04-12T02:34:04;8.60;99.90
64715;DHT22;51144;53.002;6.506;2023-04-12T02:36:29;8.60;99.90
64715;DHT22;51144;53.002;6.506;2023-04-12T02:38:55;8.70;99.90
64715;DHT22;51144;53.002;6.506;2023-04-12T02:41:22;8.60;99.90
64715;DHT22;51144;53.002;6.506;2023-04-12T02:43:48;8.60;99.90
64715;DHT22;51144;53.002;6.506;2023-04-12T02:46:18;8.60;99.90
64715;DHT22;51144;53.002;6.506;2023-04-12T02:48:46;8.60;99.90
64715;DHT22;51144;53.002;6.506;2023-04-12T02:51:11;8.50;99.90
64715;DHT22;51144;53.002;6.506;2023-04-12T02:53:37;8.60;99.90
64715;DHT22;51144;53.002;6.506;2023-04-12T02:56:04;8.50;99.90
64715;DHT22;51144;53.002;6.506;2023-04-12T02:58:30;8.60;99.90
64715;DHT22;51144;53.002;6.506;2023-04-12T03:00:56;8.50;99.90
64715;DHT22;51144;53.002;6.506;2023-04-12T03:03:25;8.50;99.90
64715;DHT22;51144;53.002;6.506;2023-04-12T03:05:51;8.50;99.90
64715;DHT22;51144;53.002;6.506;2023-04-12T03:08:17;8.50;99.90
64715;DHT22;51144;53.002;6.506;2023-04-12T03:10:43;8.50;99.90
64715;DHT22;51144;53.002;6.506;2023-04-12T03:13:09;8.50;99.90
64715;DHT22;51144;53.002;6.506;2023-04-12T03:15:35;8.50;99.90
64715;DHT22;51144;53.002;6.506;2023-04-12T03:18:01;8.50;99.90
64715;DHT22;51144;53.002;6.506;2023-04-12T03:20:26;8.50;99.90
64715;DHT22;51144;53.002;6.506;2023-04-12T03:22:53;8.50;99.90
64715;DHT22;51144;53.002;6.506;2023-04-12T03:25:19;8.50;99.90
64715;DHT22;51144;53.002;6.506;2023-04-12T03:27:45;8.50;99.90
64715;DHT22;51144;53.002;6.506;2023-04-12T03:30:11;8.50;99.90
64715;DHT22;51144;53.002;6.506;2023-04-12T03:32:38;8.50;99.90
64715;DHT22;51144;53.002;6.506;2023-04-12T03:35:05;8.50;99.90
64715;DHT22;51144;53.002;6.506;2023-04-12T03:37:32;8.50;99.90
64715;DHT22;51144;53.002;6.506;2023-04-12T03:39:58;8.60;99.90
64715;DHT22;51144;53.002;6.506;2023-04-12T03:42:24;8.60;99.90
64715;DHT22;51144;53.002;6.506;2023-04-12T03:44:49;8.60;99.90
64715;DHT22;51144;53.002;6.506;2023-04-12T03:47:17;8.50;99.90
64715;DHT22;51144;53.002;6.506;2023-04-12T03:49:42;8.50;99.90
64715;DHT22;51144;53.002;6.506;2023-04-12T03:52:08;8.50;99.90
64715;DHT22;51144;53.002;6.506;2023-04-12T03:54:34;8.50;99.90
64715;DHT22;51144;53.002;6.506;2023-04-12T03:57:00;8.50;99.90
64715;DHT22;51144;53.002;6.506;2023-04-12T03:59:27;8.60;99.90
64715;DHT22;51144;53.002;6.506;2023-04-12T04:01:53;8.60;99.90
64715;DHT22;51144;53.002;6.506;2023-04-12T04:04:20;8.50;99.90
64715;DHT22;51144;53.002;6.506;2023-04-12T04:06:46;8.50;99.90
64715;DHT22;51144;53.002;6.506;2023-04-12T04:09:13;8.50;99.90
64715;DHT22;51144;53.002;6.506;2023-04-12T04:11:39;8.50;99.90
64715;DHT22;51144;53.002;6.506;2023-04-12T04:14:04;8.50;99.90
64715;DHT22;51144;53.002;6.506;2023-04-12T04:16:30;8.50;99.90
64715;DHT22;51144;53.002;6.506;2023-04-12T04:18:56;8.50;99.90
64715;DHT22;51144;53.002;6.506;2023-04-12T04:21:21;8.50;99.90
64715;DHT22;51144;53.002;6.506;2023-04-12T04:23:48;8.40;99.90
64715;DHT22;51144;53.002;6.506;2023-04-12T04:26:16;8.40;99.90
64715;DHT22;51144;53.002;6.506;2023-04-12T04:28:42;8.40;99.90
64715;DHT22;51144;53.002;6.506;2023-04-12T04:31:10;8.30;99.90
64715;DHT22;51144;53.002;6.506;2023-04-12T04:33:36;8.30;99.90
64715;DHT22;51144;53.002;6.506;2023-04-12T04:36:04;8.30;99.90
64715;DHT22;51144;53.002;6.506;2023-04-12T04:38:30;8.30;99.90
64715;DHT22;51144;53.002;6.506;2023-04-12T04:40:59;8.30;99.90
64715;DHT22;51144;53.002;6.506;2023-04-12T04:43:27;8.30;99.90
64715;DHT22;51144;53.002;6.506;2023-04-12T04:45:58;8.30;99.90
64715;DHT22;51144;53.002;6.506;2023-04-12T04:48:24;8.20;99.90
64715;DHT22;51144;53.002;6.506;2023-04-12T04:50:49;8.20;99.90
64715;DHT22;51144;53.002;6.506;2023-04-12T04:53:17;8.20;99.90
64715;DHT22;51144;53.002;6.506;2023-04-12T04:55:43;8.20;99.90
64715;DHT22;51144;53.002;6.506;2023-04-12T04:58:08;8.10;99.90
64715;DHT22;51144;53.002;6.506;2023-04-12T05:00:34;8.10;99.90
64715;DHT22;51144;53.002;6.506;2023-04-12T05:03:00;8.10;99.90
64715;DHT22;51144;53.002;6.506;2023-04-12T05:05:27;8.10;99.90
64715;DHT22;51144;53.002;6.506;2023-04-12T05:07:53;8.00;99.90
64715;DHT22;51144;53.002;6.506;2023-04-12T05:10:20;8.00;99.90
64715;DHT22;51144;53.002;6.506;2023-04-12T05:12:45;8.00;99.90
64715;DHT22;51144;53.002;6.506;2023-04-12T05:15:11;8.00;99.90
64715;DHT22;51144;53.002;6.506;2023-04-12T05:17:36;8.00;99.90
64715;DHT22;51144;53.002;6.506;2023-04-12T05:20:02;8.00;99.90
64715;DHT22;51144;53.002;6.506;2023-04-12T05:22:36;7.90;99.90
64715;DHT22;51144;53.002;6.506;2023-04-12T05:25:01;7.90;99.90
64715;DHT22;51144;53.002;6.506;2023-04-12T05:27:29;7.90;99.90
64715;DHT22;51144;53.002;6.506;2023-04-12T05:29:58;7.90;99.90
64715;DHT22;51144;53.002;6.506;2023-04-12T05:32:24;7.90;99.90
64715;DHT22;51144;53.002;6.506;2023-04-12T05:34:50;7.90;99.90
64715;DHT22;51144;53.002;6.506;2023-04-12T05:37:16;7.90;99.90
64715;DHT22;51144;53.002;6.506;2023-04-12T05:39:42;7.80;99.90
64715;DHT22;51144;53.002;6.506;2023-04-12T05:42:08;7.80;99.90
64715;DHT22;51144;53.002;6.506;2023-04-12T05:44:34;7.80;99.90
64715;DHT22;51144;53.002;6.506;2023-04-12T05:47:02;7.80;99.90
64715;DHT22;51144;53.002;6.506;2023-04-12T05:49:28;7.80;99.90
64715;DHT22;51144;53.002;6.506;2023-04-12T05:51:55;7.90;99.90
64715;DHT22;51144;53.002;6.506;2023-04-12T05:54:21;7.80;99.90
64715;DHT22;51144;53.002;6.506;2023-04-12T05:56:46;7.80;99.90
64715;DHT22;51144;53.002;6.506;2023-04-12T05:59:12;7.80;99.90
64715;DHT22;51144;53.002;6.506;2023-04-12T06:01:38;7.80;99.90
64715;DHT22;51144;53.002;6.506;2023-04-12T06:04:07;7.80;99.90
64715;DHT22;51144;53.002;6.506;2023-04-12T06:06:33;7.80;99.90
64715;DHT22;51144;53.002;6.506;2023-04-12T06:08:58;7.80;99.90
64715;DHT22;51144;53.002;6.506;2023-04-12T06:11:27;7.80;99.90
64715;DHT22;51144;53.002;6.506;2023-04-12T06:13:53;7.80;99.90
64715;DHT22;51144;53.002;6.506;2023-04-12T06:16:19;7.80;99.90
64715;DHT22;51144;53.002;6.506;2023-04-12T06:18:45;7.80;99.90
64715;DHT22;51144;53.002;6.506;2023-04-12T06:21:11;7.80;99.90
64715;DHT22;51144;53.002;6.506;2023-04-12T06:23:37;7.80;99.90
64715;DHT22;51144;53.002;6.506;2023-04-12T06:26:03;7.70;99.90
64715;DHT22;51144;53.002;6.506;2023-04-12T06:28:28;7.80;99.90
64715;DHT22;51144;53.002;6.506;2023-04-12T06:30:54;7.80;99.90
64715;DHT22;51144;53.002;6.506;2023-04-12T06:33:20;7.80;99.90
64715;DHT22;51144;53.002;6.506;2023-04-12T06:35:48;7.70;99.90
64715;DHT22;51144;53.002;6.506;2023-04-12T14:46:55;13.10;99.90
64715;DHT22;51144;53.002;6.506;2023-04-12T14:49:21;13.10;99.90
64715;DHT22;51144;53.002;6.506;2023-04-12T14:51:47;13.00;99.90
64715;DHT22;51144;53.002;6.506;2023-04-12T14:54:12;12.90;99.90
64715;DHT22;51144;53.002;6.506;2023-04-12T14:56:38;12.90;99.90
64715;DHT22;51144;53.002;6.506;2023-04-12T14:59:04;12.90;99.90
64715;DHT22;51144;53.002;6.506;2023-04-12T15:01:30;13.10;99.90
64715;DHT22;51144;53.002;6.506;2023-04-12T15:03:55;13.20;99.90
64715;DHT22;51144;53.002;6.506;2023-04-12T15:06:22;13.40;99.90
64715;DHT22;51144;53.002;6.506;2023-04-12T15:08:51;13.30;99.90
64715;DHT22;51144;53.002;6.506;2023-04-12T15:11:19;13.30;99.90
64715;DHT22;51144;53.002;6.506;2023-04-12T15:13:46;13.20;99.90
64715;DHT22;51144;53.002;6.506;2023-04-12T15:16:13;13.10;99.90
64715;DHT22;51144;53.002;6.506;2023-04-12T15:18:39;12.90;99.90
64715;DHT22;51144;53.002;6.506;2023-04-12T15:21:07;12.30;99.90
64715;DHT22;51144;53.002;6.506;2023-04-12T15:23:34;12.10;99.90
64715;DHT22;51144;53.002;6.506;2023-04-12T15:26:01;12.00;99.90
64715;DHT22;51144;53.002;6.506;2023-04-12T15:28:27;11.80;99.90
64715;DHT22;51144;53.002;6.506;2023-04-12T15:30:53;11.80;99.90
64715;DHT22;51144;53.002;6.506;2023-04-12T15:33:19;11.60;99.90
64715;DHT22;51144;53.002;6.506;2023-04-12T15:35:46;11.50;99.90
64715;DHT22;51144;53.002;6.506;2023-04-12T15:38:12;11.50;99.90
64715;DHT22;51144;53.002;6.506;2023-04-12T15:40:38;11.50;99.90
64715;DHT22;51144;53.002;6.506;2023-04-12T15:43:03;11.50;99.90
64715;DHT22;51144;53.002;6.506;2023-04-12T15:45:29;11.60;99.90
64715;DHT22;51144;53.002;6.506;2023-04-12T15:47:55;11.60;99.90
64715;DHT22;51144;53.002;6.506;2023-04-12T15:50:20;11.70;99.90
64715;DHT22;51144;53.002;6.506;2023-04-12T15:52:46;11.70;99.90
64715;DHT22;51144;53.002;6.506;2023-04-12T15:55:14;11.70;99.90
64715;DHT22;51144;53.002;6.506;2023-04-12T15:57:41;11.80;99.90
64715;DHT22;51144;53.002;6.506;2023-04-12T16:00:07;11.70;99.90
64715;DHT22;51144;53.002;6.506;2023-04-12T16:02:53;11.70;99.90
64715;DHT22;51144;53.002;6.506;2023-04-12T16:05:22;11.70;99.90
64715;DHT22;51144;53.002;6.506;2023-04-12T16:07:52;11.70;99.90
64715;DHT22;51144;53.002;6.506;2023-04-12T16:10:19;11.60;99.90
64715;DHT22;51144;53.002;6.506;2023-04-12T16:12:52;11.60;99.90
64715;DHT22;51144;53.002;6.506;2023-04-12T16:15:19;11.60;99.90
64715;DHT22;51144;53.002;6.506;2023-04-12T16:17:49;11.60;99.90
64715;DHT22;51144;53.002;6.506;2023-04-12T16:20:19;11.60;99.90
64715;DHT22;51144;53.002;6.506;2023-04-12T16:22:47;11.60;99.90
64715;DHT22;51144;53.002;6.506;2023-04-12T16:25:14;11.60;99.90
64715;DHT22;51144;53.002;6.506;2023-04-12T16:27:41;11.50;99.90
64715;DHT22;51144;53.002;6.506;2023-04-12T16:30:07;11.50;99.90
64715;DHT22;51144;53.002;6.506;2023-04-12T16:32:35;11.50;99.90
64715;DHT22;51144;53.002;6.506;2023-04-12T16:35:01;11.50;99.90
64715;DHT22;51144;53.002;6.506;2023-04-12T16:37:27;11.50;99.90
64715;DHT22;51144;53.002;6.506;2023-04-12T16:39:54;11.40;99.90
64715;DHT22;51144;53.002;6.506;2023-04-12T16:42:19;11.40;99.90
64715;DHT22;51144;53.002;6.506;2023-04-12T16:44:49;11.40;99.90
64715;DHT22;51144;53.002;6.506;2023-04-12T16:47:14;11.30;99.90
64715;DHT22;51144;53.002;6.506;2023-04-12T16:49:40;11.30;99.90
64715;DHT22;51144;53.002;6.506;2023-04-12T16:52:06;11.30;99.90
64715;DHT22;51144;53.002;6.506;2023-04-12T16:54:34;11.30;99.90
64715;DHT22;51144;53.002;6.506;2023-04-12T16:56:59;11.30;99.90
64715;DHT22;51144;53.002;6.506;2023-04-12T16:59:25;11.20;99.90
64715;DHT22;51144;53.002;6.506;2023-04-12T17:01:51;11.20;99.90
64715;DHT22;51144;53.002;6.506;2023-04-12T17:04:17;11.20;99.90
64715;DHT22;51144;53.002;6.506;2023-04-12T17:06:43;11.10;99.90
64715;DHT22;51144;53.002;6.506;2023-04-12T17:09:09;11.10;99.90
64715;DHT22;51144;53.002;6.506;2023-04-12T17:11:35;11.00;99.90
64715;DHT22;51144;53.002;6.506;2023-04-12T17:14:01;11.00;99.90
64715;DHT22;51144;53.002;6.506;2023-04-12T17:16:27;11.00;99.90
64715;DHT22;51144;53.002;6.506;2023-04-12T17:18:53;10.90;99.90
64715;DHT22;51144;53.002;6.506;2023-04-12T17:21:19;10.90;99.90
64715;DHT22;51144;53.002;6.506;2023-04-12T17:23:47;10.90;99.90
64715;DHT22;51144;53.002;6.506;2023-04-12T17:26:13;10.90;99.90
64715;DHT22;51144;53.002;6.506;2023-04-12T17:28:39;10.80;99.90
64715;DHT22;51144;53.002;6.506;2023-04-12T17:31:05;10.80;99.90
64715;DHT22;51144;53.002;6.506;2023-04-12T17:33:30;10.80;99.90
64715;DHT22;51144;53.002;6.506;2023-04-12T17:35:56;10.70;99.90
64715;DHT22;51144;53.002;6.506;2023-04-12T17:38:22;10.70;99.90
64715;DHT22;51144;53.002;6.506;2023-04-12T17:40:48;10.70;99.90
64715;DHT22;51144;53.002;6.506;2023-04-12T17:43:13;10.70;99.90
64715;DHT22;51144;53.002;6.506;2023-04-12T17:45:40;10.70;99.90
64715;DHT22;51144;53.002;6.506;2023-04-12T17:48:07;10.70;99.90
64715;DHT22;51144;53.002;6.506;2023-04-12T17:50:35;10.60;99.90
64715;DHT22;51144;53.002;6.506;2023-04-12T17:53:00;10.60;99.90
64715;DHT22;51144;53.002;6.506;2023-04-12T17:55:26;10.60;99.90
64715;DHT22;51144;53.002;6.506;2023-04-12T17:57:52;10.60;99.90
64715;DHT22;51144;53.002;6.506;2023-04-12T18:00:18;10.50;99.90
64715;DHT22;51144;53.002;6.506;2023-04-12T18:02:45;10.50;99.90
64715;DHT22;51144;53.002;6.506;2023-04-12T18:05:11;10.50;99.90
64715;DHT22;51144;53.002;6.506;2023-04-12T18:07:38;10.50;99.90
64715;DHT22;51144;53.002;6.506;2023-04-12T18:10:08;10.50;99.90
64715;DHT22;51144;53.002;6.506;2023-04-12T18:12:34;10.40;99.90
64715;DHT22;51144;53.002;6.506;2023-04-12T18:14:59;10.40;99.90
64715;DHT22;51144;53.002;6.506;2023-04-12T18:17:26;10.40;99.90
64715;DHT22;51144;53.002;6.506;2023-04-12T18:19:52;10.40;99.90
64715;DHT22;51144;53.002;6.506;2023-04-12T18:22:18;10.40;99.90
64715;DHT22;51144;53.002;6.506;2023-04-12T18:24:43;10.40;99.90
64715;DHT22;51144;53.002;6.506;2023-04-12T18:27:09;10.40;99.90
64715;DHT22;51144;53.002;6.506;2023-04-12T18:29:34;10.30;99.90
64715;DHT22;51144;53.002;6.506;2023-04-12T18:32:00;10.30;99.90
64715;DHT22;51144;53.002;6.506;2023-04-12T18:34:26;10.30;99.90
64715;DHT22;51144;53.002;6.506;2023-04-12T18:36:54;10.30;99.90
64715;DHT22;51144;53.002;6.506;2023-04-12T18:39:23;10.30;99.90
64715;DHT22;51144;53.002;6.506;2023-04-12T18:41:49;10.20;99.90
64715;DHT22;51144;53.002;6.506;2023-04-12T18:44:15;10.20;99.90
64715;DHT22;51144;53.002;6.506;2023-04-12T18:46:44;10.20;99.90
64715;DHT22;51144;53.002;6.506;2023-04-12T18:49:10;10.10;99.90
64715;DHT22;51144;53.002;6.506;2023-04-12T18:51:39;10.10;99.90
64715;DHT22;51144;53.002;6.506;2023-04-12T18:54:04;9.90;99.90
64715;DHT22;51144;53.002;6.506;2023-04-12T18:56:34;9.90;99.90
64715;DHT22;51144;53.002;6.506;2023-04-12T18:59:00;9.80;99.90
64715;DHT22;51144;53.002;6.506;2023-04-12T19:01:26;9.70;99.90
64715;DHT22;51144;53.002;6.506;2023-04-12T19:03:52;9.70;99.90
64715;DHT22;51144;53.002;6.506;2023-04-12T19:06:21;9.70;99.90
64715;DHT22;51144;53.002;6.506;2023-04-12T19:08:46;9.70;99.90
64715;DHT22;51144;53.002;6.506;2023-04-12T19:11:14;9.70;99.90
64715;DHT22;51144;53.002;6.506;2023-04-12T19:13:40;9.60;99.90
64715;DHT22;51144;53.002;6.506;2023-04-12T19:16:05;9.60;99.90
64715;DHT22;51144;53.002;6.506;2023-04-12T19:18:32;9.50;99.90
64715;DHT22;51144;53.002;6.506;2023-04-12T19:20:57;9.50;99.90
64715;DHT22;51144;53.002;6.506;2023-04-12T19:23:23;9.40;99.90
64715;DHT22;51144;53.002;6.506;2023-04-12T19:25:49;9.40;99.90
64715;DHT22;51144;53.002;6.506;2023-04-12T19:28:17;9.30;99.90
64715;DHT22;51144;53.002;6.506;2023-04-12T19:30:42;9.30;99.90
64715;DHT22;51144;53.002;6.506;2023-04-12T19:33:08;9.20;99.90
64715;DHT22;51144;53.002;6.506;2023-04-12T19:35:34;9.10;99.90
64715;DHT22;51144;53.002;6.506;2023-04-12T19:38:00;9.10;99.90
64715;DHT22;51144;53.002;6.506;2023-04-12T19:40:26;9.00;99.90
64715;DHT22;51144;53.002;6.506;2023-04-12T19:42:52;8.90;99.90
64715;DHT22;51144;53.002;6.506;2023-04-12T19:45:17;8.80;99.90
64715;DHT22;51144;53.002;6.506;2023-04-12T19:47:43;8.80;99.90
64715;DHT22;51144;53.002;6.506;2023-04-12T19:50:13;8.70;99.90
64715;DHT22;51144;53.002;6.506;2023-04-12T19:52:47;8.60;99.90
64715;DHT22;51144;53.002;6.506;2023-04-12T19:55:13;8.60;99.90
64715;DHT22;51144;53.002;6.506;2023-04-12T19:57:40;8.50;99.90
64715;DHT22;51144;53.002;6.506;2023-04-12T20:00:07;8.40;99.90
64715;DHT22;51144;53.002;6.506;2023-04-12T20:02:52;8.40;99.90
64715;DHT22;51144;53.002;6.506;2023-04-12T20:05:21;8.30;99.90
64715;DHT22;51144;53.002;6.506;2023-04-12T20:07:48;8.20;99.90
64715;DHT22;51144;53.002;6.506;2023-04-12T20:10:14;8.20;99.90
64715;DHT22;51144;53.002;6.506;2023-04-12T20:12:40;8.10;99.90
64715;DHT22;51144;53.002;6.506;2023-04-12T20:15:07;8.10;99.90
64715;DHT22;51144;53.002;6.506;2023-04-12T20:17:34;8.00;99.90
64715;DHT22;51144;53.002;6.506;2023-04-12T20:20:00;8.00;99.90
64715;DHT22;51144;53.002;6.506;2023-04-12T20:22:25;8.00;99.90
64715;DHT22;51144;53.002;6.506;2023-04-12T20:24:51;7.90;99.90
64715;DHT22;51144;53.002;6.506;2023-04-12T20:27:21;7.90;99.90
64715;DHT22;51144;53.002;6.506;2023-04-12T20:29:47;7.80;99.90
64715;DHT22;51144;53.002;6.506;2023-04-12T20:32:13;7.70;99.90
64715;DHT22;51144;53.002;6.506;2023-04-12T20:34:42;7.70;99.90
64715;DHT22;51144;53.002;6.506;2023-04-12T20:37:15;7.70;99.90
64715;DHT22;51144;53.002;6.506;2023-04-12T20:39:41;7.60;99.90
64715;DHT22;51144;53.002;6.506;2023-04-12T20:42:08;7.60;99.90
64715;DHT22;51144;53.002;6.506;2023-04-12T20:44:34;7.60;99.90
64715;DHT22;51144;53.002;6.506;2023-04-12T20:47:00;7.50;99.90
64715;DHT22;51144;53.002;6.506;2023-04-12T20:49:27;7.50;99.90
64715;DHT22;51144;53.002;6.506;2023-04-12T20:51:54;7.40;99.90
64715;DHT22;51144;53.002;6.506;2023-04-12T20:54:25;7.40;99.90
64715;DHT22;51144;53.002;6.506;2023-04-12T20:56:52;7.30;99.90
64715;DHT22;51144;53.002;6.506;2023-04-12T20:59:18;7.20;99.90
64715;DHT22;51144;53.002;6.506;2023-04-12T21:01:50;7.20;99.90
64715;DHT22;51144;53.002;6.506;2023-04-12T21:04:17;7.20;99.90
64715;DHT22;51144;53.002;6.506;2023-04-12T21:06:44;7.10;99.90
64715;DHT22;51144;53.002;6.506;2023-04-12T21:09:12;7.10;99.90
64715;DHT22;51144;53.002;6.506;2023-04-12T21:11:42;7.00;99.90
64715;DHT22;51144;53.002;6.506;2023-04-12T21:14:08;6.90;99.90
64715;DHT22;51144;53.002;6.506;2023-04-12T21:16:38;6.80;99.90
64715;DHT22;51144;53.002;6.506;2023-04-12T21:19:04;6.80;99.90
64715;DHT22;51144;53.002;6.506;2023-04-12T21:21:36;6.70;99.90
64715;DHT22;51144;53.002;6.506;2023-04-12T21:24:02;6.70;99.90
64715;DHT22;51144;53.002;6.506;2023-04-12T21:26:31;6.70;99.90
64715;DHT22;51144;53.002;6.506;2023-04-12T21:28:57;6.60;99.90
64715;DHT22;51144;53.002;6.506;2023-04-12T21:31:22;6.60;99.90
64715;DHT22;51144;53.002;6.506;2023-04-12T21:33:49;6.50;99.90
64715;DHT22;51144;53.002;6.506;2023-04-12T21:36:15;6.50;99.90
64715;DHT22;51144;53.002;6.506;2023-04-12T21:38:40;6.50;99.90
64715;DHT22;51144;53.002;6.506;2023-04-12T21:41:10;6.50;99.90
64715;DHT22;51144;53.002;6.506;2023-04-12T21:43:39;6.50;99.90
64715;DHT22;51144;53.002;6.506;2023-04-12T21:46:06;6.50;99.90
64715;DHT22;51144;53.002;6.506;2023-04-12T21:48:35;6.50;99.90
64715;DHT22;51144;53.002;6.506;2023-04-12T21:51:01;6.50;99.90
64715;DHT22;51144;53.002;6.506;2023-04-12T21:53:27;6.40;99.90
64715;DHT22;51144;53.002;6.506;2023-04-12T21:55:53;6.40;99.90
64715;DHT22;51144;53.002;6.506;2023-04-12T21:58:18;6.50;99.90
64715;DHT22;51144;53.002;6.506;2023-04-12T22:00:44;6.50;99.90
64715;DHT22;51144;53.002;6.506;2023-04-12T22:03:10;6.40;99.90
64715;DHT22;51144;53.002;6.506;2023-04-12T22:05:35;6.40;99.90
64715;DHT22;51144;53.002;6.506;2023-04-12T22:08:05;6.40;99.90
64715;DHT22;51144;53.002;6.506;2023-04-12T22:10:34;6.40;99.90
64715;DHT22;51144;53.002;6.506;2023-04-12T22:13:01;6.40;99.90
64715;DHT22;51144;53.002;6.506;2023-04-12T22:15:27;6.30;99.90
64715;DHT22;51144;53.002;6.506;2023-04-12T22:17:54;6.30;99.90
64715;DHT22;51144;53.002;6.506;2023-04-12T22:20:20;6.30;99.90
64715;DHT22;51144;53.002;6.506;2023-04-12T22:22:45;6.30;99.90
64715;DHT22;51144;53.002;6.506;2023-04-12T22:25:11;6.30;99.90
64715;DHT22;51144;53.002;6.506;2023-04-12T22:27:40;6.30;99.90
64715;DHT22;51144;53.002;6.506;2023-04-12T22:30:07;6.30;99.90
64715;DHT22;51144;53.002;6.506;2023-04-12T22:32:36;6.30;99.90
64715;DHT22;51144;53.002;6.506;2023-04-12T22:35:01;6.30;99.90
64715;DHT22;51144;53.002;6.506;2023-04-12T22:37:28;6.30;99.90
64715;DHT22;51144;53.002;6.506;2023-04-12T22:39:54;6.30;99.90
64715;DHT22;51144;53.002;6.506;2023-04-12T22:42:20;6.30;99.90
64715;DHT22;51144;53.002;6.506;2023-04-12T22:44:50;6.30;99.90
64715;DHT22;51144;53.002;6.506;2023-04-12T22:47:18;6.20;99.90
64715;DHT22;51144;53.002;6.506;2023-04-12T22:49:47;6.20;99.90
64715;DHT22;51144;53.002;6.506;2023-04-12T22:52:19;6.20;99.90
64715;DHT22;51144;53.002;6.506;2023-04-12T22:54:47;6.20;99.90
64715;DHT22;51144;53.002;6.506;2023-04-12T22:57:12;6.20;99.90
64715;DHT22;51144;53.002;6.506;2023-04-12T22:59:38;6.20;99.90
64715;DHT22;51144;53.002;6.506;2023-04-12T23:02:03;6.20;99.90
64715;DHT22;51144;53.002;6.506;2023-04-12T23:04:30;6.20;99.90
64715;DHT22;51144;53.002;6.506;2023-04-12T23:06:56;6.20;99.90
64715;DHT22;51144;53.002;6.506;2023-04-12T23:09:22;6.10;99.90
64715;DHT22;51144;53.002;6.506;2023-04-12T23:11:48;6.20;99.90
64715;DHT22;51144;53.002;6.506;2023-04-12T23:14:13;6.20;99.90
64715;DHT22;51144;53.002;6.506;2023-04-12T23:16:43;6.10;99.90
64715;DHT22;51144;53.002;6.506;2023-04-12T23:19:09;6.20;99.90
64715;DHT22;51144;53.002;6.506;2023-04-12T23:21:36;6.20;99.90
64715;DHT22;51144;53.002;6.506;2023-04-12T23:24:02;6.20;99.90
64715;DHT22;51144;53.002;6.506;2023-04-12T23:26:28;6.10;99.90
64715;DHT22;51144;53.002;6.506;2023-04-12T23:28:54;6.10;99.90
64715;DHT22;51144;53.002;6.506;2023-04-12T23:31:20;6.10;99.90
64715;DHT22;51144;53.002;6.506;2023-04-12T23:33:45;6.10;99.90
64715;DHT22;51144;53.002;6.506;2023-04-12T23:36:11;6.10;99.90
64715;DHT22;51144;53.002;6.506;2023-04-12T23:38:37;6.10;99.90
64715;DHT22;51144;53.002;6.506;2023-04-12T23:41:06;6.10;99.90
64715;DHT22;51144;53.002;6.506;2023-04-12T23:43:33;6.10;99.90
64715;DHT22;51144;53.002;6.506;2023-04-12T23:45:59;6.10;99.90
64715;DHT22;51144;53.002;6.506;2023-04-12T23:48:26;6.10;99.90
64715;DHT22;51144;53.002;6.506;2023-04-12T23:50:52;6.10;99.90
64715;DHT22;51144;53.002;6.506;2023-04-12T23:53:18;6.10;99.90
64715;DHT22;51144;53.002;6.506;2023-04-12T23:55:49;6.10;99.90
64715;DHT22;51144;53.002;6.506;2023-04-12T23:58:15;6.10;99.90
